createdAt,value
2018-09-24T00:01:29.689Z,88.30
2018-09-24T00:03:32.697Z,88.00
2018-09-24T00:05:35.736Z,88.40
2018-09-24T00:07:38.743Z,88.20
2018-09-24T00:09:41.749Z,88.10
2018-09-24T00:11:44.813Z,87.90
2018-09-24T00:13:47.868Z,88.00
2018-09-24T00:15:50.887Z,88.10
2018-09-24T00:17:53.910Z,88.00
2018-09-24T00:19:58.641Z,88.20
2018-09-24T00:22:01.659Z,88.20
2018-09-24T00:24:05.180Z,88.40
2018-09-24T00:26:08.237Z,88.10
2018-09-24T00:28:11.250Z,88.00
2018-09-24T00:30:14.300Z,87.90
2018-09-24T00:32:17.332Z,87.70
2018-09-24T00:34:20.635Z,87.60
2018-09-24T00:36:23.644Z,87.80
2018-09-24T00:38:28.395Z,87.60
2018-09-24T00:40:31.504Z,87.60
2018-09-24T00:42:34.548Z,87.40
2018-09-24T00:44:37.637Z,87.50
2018-09-24T00:46:40.861Z,87.50
2018-09-24T00:48:43.885Z,87.70
2018-09-24T00:50:47.170Z,87.70
2018-09-24T00:52:50.359Z,87.70
2018-09-24T00:54:53.415Z,87.80
2018-09-24T00:56:58.107Z,88.20
2018-09-24T00:59:01.718Z,87.70
2018-09-24T01:01:04.790Z,87.80
2018-09-24T01:03:07.845Z,87.90
2018-09-24T01:05:11.225Z,87.70
2018-09-24T01:07:14.299Z,87.90
2018-09-24T01:09:17.367Z,87.80
2018-09-24T01:11:20.460Z,87.60
2018-09-24T01:13:23.508Z,87.60
2018-09-24T01:15:28.624Z,87.50
2018-09-24T01:17:31.694Z,87.20
2018-09-24T01:19:34.724Z,87.10
2018-09-24T01:21:38.077Z,87.30
2018-09-24T01:23:41.128Z,87.30
2018-09-24T01:25:44.114Z,87.10
2018-09-24T01:27:47.238Z,87.10
2018-09-24T01:29:50.295Z,87.00
2018-09-24T01:31:53.336Z,87.30
2018-09-24T01:33:57.760Z,87.20
2018-09-24T01:36:00.848Z,87.20
2018-09-24T01:38:03.943Z,86.90
2018-09-24T01:40:07.331Z,87.10
2018-09-24T01:42:10.375Z,87.20
2018-09-24T01:44:13.455Z,87.00
2018-09-24T01:46:16.497Z,87.10
2018-09-24T01:48:19.529Z,86.90
2018-09-24T01:50:22.583Z,86.70
2018-09-24T01:52:25.685Z,86.90
2018-09-24T01:54:30.499Z,86.80
2018-09-24T01:56:33.725Z,87.10
2018-09-24T01:58:37.848Z,86.70
2018-09-24T02:00:40.881Z,86.80
2018-09-24T02:02:43.918Z,87.30
2018-09-24T02:04:47.151Z,86.70
2018-09-24T02:06:50.250Z,86.70
2018-09-24T02:08:53.251Z,86.90
2018-09-24T02:10:58.280Z,86.80
2018-09-24T02:13:01.494Z,86.60
2018-09-24T02:15:04.968Z,86.90
2018-09-24T02:17:18.647Z,87.00
2018-09-24T02:19:21.659Z,86.90
2018-09-24T02:21:24.963Z,87.00
2018-09-24T02:23:29.488Z,86.70
2018-09-24T02:25:33.034Z,86.80
2018-09-24T02:27:36.075Z,86.70
2018-09-24T02:29:39.609Z,87.20
2018-09-24T02:31:42.648Z,86.90
2018-09-24T02:33:45.896Z,86.70
2018-09-24T02:35:49.403Z,86.70
2018-09-24T02:37:52.451Z,86.70
2018-09-24T02:39:55.527Z,86.90
2018-09-24T02:42:00.382Z,87.00
2018-09-24T02:44:03.461Z,86.80
2018-09-24T02:46:06.475Z,86.90
2018-09-24T02:48:09.467Z,86.70
2018-09-24T02:50:12.533Z,86.90
2018-09-24T02:52:15.569Z,86.90
2018-09-24T02:54:18.586Z,86.80
2018-09-24T02:56:21.618Z,86.80
2018-09-24T02:58:24.844Z,86.60
2018-09-24T03:00:29.674Z,86.70
2018-09-24T03:02:32.697Z,86.70
2018-09-24T03:04:35.765Z,86.50
2018-09-24T03:06:39.180Z,86.40
2018-09-24T03:08:42.165Z,86.40
2018-09-24T03:10:45.199Z,86.40
2018-09-24T03:12:50.038Z,86.30
2018-09-24T03:14:53.093Z,86.00
2018-09-24T03:16:57.826Z,86.10
2018-09-24T03:19:00.882Z,86.10
2018-09-24T03:21:03.982Z,86.30
2018-09-24T03:23:07.424Z,87.00
2018-09-24T03:25:17.329Z,86.30
2018-09-24T03:27:20.911Z,86.20
2018-09-24T03:29:25.173Z,86.40
2018-09-24T03:31:35.675Z,86.30
2018-09-24T03:33:38.701Z,86.20
2018-09-24T03:35:41.720Z,86.10
2018-09-24T03:37:44.779Z,86.10
2018-09-24T03:39:47.841Z,86.10
2018-09-24T03:41:50.936Z,86.10
2018-09-24T03:43:53.937Z,86.10
2018-09-24T03:45:59.003Z,86.00
2018-09-24T03:48:02.020Z,85.90
2018-09-24T03:50:05.362Z,85.90
2018-09-24T03:52:08.429Z,86.10
2018-09-24T03:54:11.454Z,85.90
2018-09-24T03:56:14.515Z,85.90
2018-09-24T03:58:17.522Z,85.70
2018-09-24T04:00:20.530Z,85.80
2018-09-24T04:02:23.613Z,85.70
2018-09-24T04:04:32.596Z,85.70
2018-09-24T04:06:41.434Z,85.70
2018-09-24T04:08:50.211Z,85.60
2018-09-24T04:10:58.963Z,85.70
2018-09-24T04:13:07.716Z,85.70
2018-09-24T04:15:16.646Z,85.70
2018-09-24T04:17:25.256Z,85.50
2018-09-24T04:19:36.056Z,85.60
2018-09-24T04:21:44.809Z,85.50
2018-09-24T04:23:53.557Z,85.50
2018-09-24T04:26:02.482Z,85.60
2018-09-24T04:28:11.206Z,85.30
2018-09-24T04:30:20.165Z,85.50
2018-09-24T04:32:29.240Z,85.40
2018-09-24T04:34:37.946Z,85.50
2018-09-24T04:36:46.832Z,85.60
2018-09-24T04:38:55.573Z,85.10
2018-09-24T04:41:05.675Z,85.00
2018-09-24T04:43:14.678Z,85.00
2018-09-24T04:45:23.453Z,85.20
2018-09-24T04:47:32.338Z,85.10
2018-09-24T04:49:41.198Z,85.00
2018-09-24T04:51:49.922Z,85.00
2018-09-24T04:53:58.611Z,85.20
2018-09-24T04:56:07.629Z,85.00
2018-09-24T04:58:16.565Z,85.00
2018-09-24T05:00:25.303Z,84.80
2018-09-24T05:02:40.258Z,84.70
2018-09-24T05:04:55.220Z,84.80
2018-09-24T05:07:10.195Z,84.80
2018-09-24T05:09:25.370Z,84.60
2018-09-24T05:11:40.569Z,84.70
2018-09-24T05:13:55.624Z,84.60
2018-09-24T05:16:10.597Z,84.40
2018-09-24T05:18:25.402Z,84.40
2018-09-24T05:20:40.310Z,84.40
2018-09-24T05:22:49.167Z,84.10
2018-09-24T05:24:58.264Z,84.00
2018-09-24T05:27:07.036Z,84.40
2018-09-24T05:29:16.085Z,84.20
2018-09-24T05:31:24.939Z,84.20
2018-09-24T05:33:35.424Z,84.10
2018-09-24T05:35:45.351Z,84.10
2018-09-24T05:37:54.156Z,83.90
2018-09-24T05:40:04.232Z,84.10
2018-09-24T05:42:13.515Z,83.70
2018-09-24T05:44:22.392Z,83.90
2018-09-24T05:46:31.233Z,83.70
2018-09-24T05:48:40.077Z,83.90
2018-09-24T05:50:48.738Z,83.80
2018-09-24T05:52:57.644Z,83.20
2018-09-24T05:55:06.388Z,83.40
2018-09-24T05:57:15.228Z,83.50
2018-09-24T05:59:24.049Z,83.40
2018-09-24T06:01:34.382Z,82.80
2018-09-24T06:03:43.167Z,82.80
2018-09-24T06:05:51.951Z,83.00
2018-09-24T06:08:00.905Z,82.80
2018-09-24T06:10:09.912Z,82.20
2018-09-24T06:12:18.746Z,82.60
2018-09-24T06:14:27.725Z,82.10
2018-09-24T06:16:36.531Z,81.40
2018-09-24T06:18:45.326Z,81.70
2018-09-24T06:20:54.005Z,81.90
2018-09-24T06:23:04.324Z,81.30
2018-09-24T06:25:13.140Z,80.90
2018-09-24T06:27:21.983Z,80.90
2018-09-24T06:29:30.818Z,80.60
2018-09-24T06:31:39.850Z,81.00
2018-09-24T06:33:48.448Z,80.60
2018-09-24T06:35:57.721Z,80.70
2018-09-24T06:38:06.498Z,80.10
2018-09-24T06:40:15.276Z,80.10
2018-09-24T06:42:24.019Z,80.30
2018-09-24T06:44:34.459Z,79.30
2018-09-24T06:46:43.164Z,79.00
2018-09-24T06:48:51.981Z,78.50
2018-09-24T06:51:00.767Z,79.00
2018-09-24T06:53:09.658Z,78.90
2018-09-24T06:55:18.377Z,79.00
2018-09-24T06:57:28.279Z,77.70
2018-09-24T06:59:37.323Z,77.40
2018-09-24T07:01:45.897Z,76.40
2018-09-24T07:03:54.540Z,78.00
2018-09-24T07:06:04.673Z,76.80
2018-09-24T07:08:13.296Z,77.10
2018-09-24T07:10:22.073Z,76.80
2018-09-24T07:12:30.920Z,77.10
2018-09-24T07:14:39.736Z,75.30
2018-09-24T07:16:48.588Z,75.40
2018-09-24T07:18:57.251Z,75.20
2018-09-24T07:21:06.030Z,74.70
2018-09-24T07:23:14.872Z,75.80
2018-09-24T07:25:23.903Z,74.10
2018-09-24T07:27:34.317Z,72.30
2018-09-24T07:29:43.131Z,73.80
2018-09-24T07:31:52.180Z,73.20
2018-09-24T07:34:00.777Z,72.80
2018-09-24T07:36:09.549Z,72.60
2018-09-24T07:38:18.415Z,73.30
2018-09-24T07:40:27.106Z,71.50
2018-09-24T07:42:36.012Z,71.70
2018-09-24T07:44:44.666Z,71.20
2018-09-24T07:46:53.380Z,68.80
2018-09-24T07:49:02.091Z,68.70
2018-09-24T07:51:10.751Z,69.90
2018-09-24T07:53:19.469Z,69.20
2018-09-24T07:55:28.230Z,67.90
2018-09-24T07:57:36.864Z,68.60
2018-09-24T07:59:45.648Z,67.40
2018-09-24T08:01:54.634Z,67.30
2018-09-24T08:04:05.292Z,66.10
2018-09-24T08:06:14.259Z,67.00
2018-09-24T08:08:22.968Z,66.30
2018-09-24T08:10:31.796Z,66.80
2018-09-24T08:12:40.629Z,65.20
2018-09-24T08:14:49.628Z,65.10
2018-09-24T08:16:58.506Z,67.50
2018-09-24T08:19:07.285Z,65.70
2018-09-24T08:21:16.459Z,63.90
2018-09-24T08:23:25.151Z,64.00
2018-09-24T08:25:35.728Z,64.00
2018-09-24T08:27:44.569Z,64.30
2018-09-24T08:29:53.425Z,63.40
2018-09-24T08:32:02.301Z,64.00
2018-09-24T08:34:11.295Z,63.10
2018-09-24T08:36:20.215Z,61.00
2018-09-24T08:38:28.999Z,63.90
2018-09-24T08:40:37.892Z,62.20
2018-09-24T08:42:46.800Z,60.60
2018-09-24T08:44:55.702Z,62.30
2018-09-24T08:47:04.489Z,61.50
2018-09-24T08:49:13.105Z,61.10
2018-09-24T08:51:21.842Z,60.60
2018-09-24T08:53:30.532Z,58.70
2018-09-24T08:55:39.664Z,59.70
2018-09-24T08:57:48.508Z,60.80
2018-09-24T08:59:57.657Z,60.00
2018-09-24T09:02:06.508Z,58.90
2018-09-24T09:04:15.224Z,59.10
2018-09-24T09:06:23.989Z,59.60
2018-09-24T09:08:34.486Z,61.20
2018-09-24T09:10:43.178Z,58.90
2018-09-24T09:12:51.962Z,57.00
2018-09-24T09:15:00.768Z,58.60
2018-09-24T09:17:09.419Z,58.10
2018-09-24T09:19:18.314Z,58.30
2018-09-24T09:21:27.127Z,56.40
2018-09-24T09:23:35.879Z,56.30
2018-09-24T09:25:44.887Z,58.00
2018-09-24T09:27:53.547Z,56.10
2018-09-24T09:30:02.756Z,57.00
2018-09-24T09:32:11.631Z,56.70
2018-09-24T09:34:20.404Z,57.20
2018-09-24T09:36:29.222Z,56.70
2018-09-24T09:38:38.018Z,57.30
2018-09-24T09:40:46.744Z,56.80
2018-09-24T09:42:55.656Z,56.50
2018-09-24T09:45:05.488Z,56.60
2018-09-24T09:47:14.465Z,56.80
2018-09-24T09:49:23.556Z,55.50
2018-09-24T09:51:32.431Z,56.00
2018-09-24T09:53:41.332Z,54.80
2018-09-24T09:55:50.027Z,56.30
2018-09-24T09:57:58.918Z,56.60
2018-09-24T10:00:07.799Z,54.10
2018-09-24T10:02:16.588Z,52.20
2018-09-24T10:04:25.448Z,52.30
2018-09-24T10:06:35.691Z,51.80
2018-09-24T10:08:44.672Z,51.50
2018-09-24T10:10:53.555Z,50.80
2018-09-24T10:13:02.391Z,52.50
2018-09-24T10:15:11.216Z,52.30
2018-09-24T10:17:19.947Z,50.40
2018-09-24T10:19:28.776Z,49.30
2018-09-24T10:21:37.656Z,49.70
2018-09-24T10:23:46.608Z,49.30
2018-09-24T10:25:55.607Z,49.30
2018-09-24T10:28:04.360Z,48.10
2018-09-24T10:30:13.135Z,48.90
2018-09-24T10:32:21.931Z,46.70
2018-09-24T10:34:30.759Z,48.10
2018-09-24T10:36:39.858Z,47.10
2018-09-24T10:38:48.583Z,48.10
2018-09-24T10:40:57.390Z,47.20
2018-09-24T10:43:06.212Z,46.90
2018-09-24T10:45:14.986Z,48.10
2018-09-24T10:47:23.833Z,47.60
2018-09-24T10:49:34.388Z,47.10
2018-09-24T10:51:43.125Z,48.10
2018-09-24T10:53:51.763Z,47.40
2018-09-24T10:56:00.528Z,47.10
2018-09-24T10:58:09.668Z,47.10
2018-09-24T11:00:18.286Z,46.90
2018-09-24T11:02:27.179Z,47.70
2018-09-24T11:04:36.105Z,48.70
2018-09-24T11:06:44.720Z,46.70
2018-09-24T11:08:53.582Z,46.40
2018-09-24T11:11:02.357Z,45.40
2018-09-24T11:13:11.125Z,45.50
2018-09-24T11:15:19.965Z,45.90
2018-09-24T11:17:29.017Z,46.30
2018-09-24T11:19:37.378Z,46.60
2018-09-24T11:21:46.219Z,46.50
2018-09-24T11:23:54.963Z,46.40
2018-09-24T11:26:05.156Z,46.40
2018-09-24T11:28:13.881Z,47.00
2018-09-24T11:30:22.640Z,46.90
2018-09-24T11:32:31.519Z,44.30
2018-09-24T11:34:40.337Z,43.90
2018-09-24T11:36:49.139Z,45.10
2018-09-24T11:38:57.960Z,45.30
2018-09-24T11:41:06.843Z,46.30
2018-09-24T11:43:15.661Z,46.60
2018-09-24T11:45:24.418Z,48.00
2018-09-24T11:47:34.711Z,47.40
2018-09-24T11:49:43.597Z,47.10
2018-09-24T11:51:52.255Z,45.20
2018-09-24T11:54:01.097Z,45.70
2018-09-24T11:56:09.979Z,45.10
2018-09-24T11:58:18.783Z,44.10
2018-09-24T12:00:27.550Z,43.30
2018-09-24T12:02:36.893Z,41.70
2018-09-24T12:04:52.644Z,42.00
2018-09-24T12:07:01.513Z,43.50
2018-09-24T12:09:13.635Z,45.80
2018-09-24T12:11:22.310Z,47.60
2018-09-24T12:13:31.243Z,49.90
2018-09-24T12:15:40.031Z,47.60
2018-09-24T12:17:48.945Z,50.60
2018-09-24T12:19:58.584Z,49.20
2018-09-24T12:22:07.420Z,49.00
2018-09-24T12:24:16.146Z,47.00
2018-09-24T12:26:24.853Z,45.30
2018-09-24T12:28:34.880Z,45.20
2018-09-24T12:30:43.689Z,44.40
2018-09-24T12:32:52.477Z,45.00
2018-09-24T12:35:01.247Z,44.80
2018-09-24T12:37:10.096Z,41.60
2018-09-24T12:39:18.922Z,41.10
2018-09-24T12:41:27.852Z,42.80
2018-09-24T12:43:36.576Z,43.80
2018-09-24T12:45:45.397Z,44.60
2018-09-24T12:47:54.223Z,44.00
2018-09-24T12:50:04.525Z,45.10
2018-09-24T12:52:13.266Z,46.60
2018-09-24T12:54:22.122Z,46.40
2018-09-24T12:56:30.873Z,46.40
2018-09-24T12:58:39.604Z,47.40
2018-09-24T13:00:48.231Z,47.80
2018-09-24T13:02:57.675Z,46.60
2018-09-24T13:05:06.651Z,47.80
2018-09-24T13:07:15.280Z,46.50
2018-09-24T13:09:23.877Z,47.80
2018-09-24T13:11:33.906Z,46.70
2018-09-24T13:13:42.614Z,46.40
2018-09-24T13:15:51.556Z,46.50
2018-09-24T13:18:00.194Z,45.60
2018-09-24T13:20:08.911Z,45.10
2018-09-24T13:22:17.668Z,44.60
2018-09-24T13:24:27.868Z,44.90
2018-09-24T13:26:36.571Z,44.40
2018-09-24T13:28:45.212Z,45.80
2018-09-24T13:30:54.049Z,45.60
2018-09-24T13:33:04.263Z,47.30
2018-09-24T13:35:13.018Z,45.90
2018-09-24T13:37:21.775Z,45.20
2018-09-24T13:39:30.680Z,44.40
2018-09-24T13:41:39.352Z,43.00
2018-09-24T13:43:48.026Z,43.50
2018-09-24T13:45:56.836Z,43.90
2018-09-24T13:48:05.504Z,44.40
2018-09-24T13:50:14.549Z,44.30
2018-09-24T13:52:23.279Z,45.00
2018-09-24T13:54:32.026Z,46.60
2018-09-24T13:56:40.963Z,46.70
2018-09-24T13:58:49.721Z,47.20
2018-09-24T14:00:58.588Z,48.30
2018-09-24T14:03:07.375Z,49.10
2018-09-24T14:05:16.227Z,48.90
2018-09-24T14:07:25.067Z,48.50
2018-09-24T14:09:35.727Z,48.50
2018-09-24T14:11:44.542Z,47.20
2018-09-24T14:13:53.284Z,46.50
2018-09-24T14:16:02.040Z,48.10
2018-09-24T14:18:10.913Z,48.80
2018-09-24T14:20:19.543Z,48.90
2018-09-24T14:22:28.221Z,49.30
2018-09-24T14:24:36.936Z,48.50
2018-09-24T14:26:45.659Z,50.60
2018-09-24T14:28:54.477Z,52.80
2018-09-24T14:31:04.974Z,50.90
2018-09-24T14:33:13.948Z,52.10
2018-09-24T14:35:22.676Z,51.10
2018-09-24T14:37:31.435Z,51.60
2018-09-24T14:39:40.248Z,50.10
2018-09-24T14:41:49.012Z,50.80
2018-09-24T14:43:57.853Z,50.20
2018-09-24T14:46:06.720Z,50.70
2018-09-24T14:48:15.365Z,48.40
2018-09-24T14:50:24.057Z,46.20
2018-09-24T14:52:34.617Z,46.60
2018-09-24T14:54:43.340Z,45.30
2018-09-24T14:56:52.182Z,46.40
2018-09-24T14:59:00.977Z,44.40
2018-09-24T15:01:09.956Z,43.10
2018-09-24T15:03:18.686Z,42.10
2018-09-24T15:05:27.357Z,42.20
2018-09-24T15:07:36.151Z,41.90
2018-09-24T15:09:45.002Z,41.30
2018-09-24T15:11:53.675Z,40.50
2018-09-24T15:14:02.434Z,39.90
2018-09-24T15:16:11.219Z,39.10
2018-09-24T15:18:20.172Z,38.10
2018-09-24T15:20:28.953Z,39.20
2018-09-24T15:22:37.798Z,38.80
2018-09-24T15:24:46.789Z,38.80
2018-09-24T15:26:55.590Z,37.30
2018-09-24T15:29:05.674Z,38.30
2018-09-24T15:31:14.588Z,37.80
2018-09-24T15:33:23.395Z,38.60
2018-09-24T15:35:32.233Z,38.30
2018-09-24T15:37:40.895Z,38.30
2018-09-24T15:39:49.662Z,38.00
2018-09-24T15:41:58.375Z,37.70
2018-09-24T15:44:07.153Z,38.70
2018-09-24T15:46:15.861Z,40.40
2018-09-24T15:48:24.664Z,39.80
2018-09-24T15:50:34.651Z,40.90
2018-09-24T15:52:43.398Z,40.60
2018-09-24T15:54:52.286Z,40.50
2018-09-24T15:57:00.927Z,41.30
2018-09-24T15:59:09.710Z,40.20
2018-09-24T16:01:18.382Z,41.20
2018-09-24T16:03:27.347Z,40.50
2018-09-24T16:05:36.160Z,41.40
2018-09-24T16:07:44.876Z,40.60
2018-09-24T16:09:53.714Z,41.40
2018-09-24T16:12:02.525Z,41.40
2018-09-24T16:14:11.355Z,43.00
2018-09-24T16:16:20.195Z,43.00
2018-09-24T16:18:28.921Z,44.10
2018-09-24T16:20:37.608Z,44.10
2018-09-24T16:22:46.385Z,44.90
2018-09-24T16:24:55.208Z,45.20
2018-09-24T16:27:05.844Z,46.30
2018-09-24T16:29:14.652Z,46.20
2018-09-24T16:31:23.467Z,46.30
2018-09-24T16:33:32.153Z,46.60
2018-09-24T16:35:41.175Z,47.00
2018-09-24T16:37:49.860Z,47.20
2018-09-24T16:39:58.620Z,47.40
2018-09-24T16:42:07.528Z,47.50
2018-09-24T16:44:16.391Z,47.70
2018-09-24T16:46:25.429Z,48.60
2018-09-24T16:48:35.611Z,49.30
2018-09-24T16:50:44.445Z,48.50
2018-09-24T16:52:53.276Z,48.70
2018-09-24T16:55:02.046Z,49.30
2018-09-24T16:57:11.419Z,49.20
2018-09-24T16:59:20.129Z,49.30
2018-09-24T17:01:28.897Z,50.00
2018-09-24T17:03:37.763Z,49.70
2018-09-24T17:05:46.572Z,49.90
2018-09-24T17:07:55.372Z,50.60
2018-09-24T17:10:05.636Z,50.20
2018-09-24T17:12:14.554Z,50.20
2018-09-24T17:14:23.307Z,49.90
2018-09-24T17:16:32.104Z,50.20
2018-09-24T17:18:40.914Z,49.90
2018-09-24T17:20:49.700Z,50.50
2018-09-24T17:22:58.804Z,50.60
2018-09-24T17:25:07.670Z,50.40
2018-09-24T17:27:16.344Z,50.50
2018-09-24T17:29:25.141Z,50.70
2018-09-24T17:31:35.356Z,51.10
2018-09-24T17:33:44.483Z,50.80
2018-09-24T17:35:53.247Z,50.90
2018-09-24T17:38:02.059Z,51.00
2018-09-24T17:40:10.904Z,51.20
2018-09-24T17:42:19.988Z,51.60
2018-09-24T17:44:28.767Z,51.40
2018-09-24T17:46:37.555Z,51.70
2018-09-24T17:48:46.534Z,51.40
2018-09-24T17:50:55.275Z,51.30
2018-09-24T17:53:05.319Z,51.40
2018-09-24T17:55:14.199Z,51.40
2018-09-24T17:57:22.884Z,51.60
2018-09-24T17:59:32.118Z,51.50
2018-09-24T18:01:40.922Z,52.00
2018-09-24T18:03:49.720Z,52.40
2018-09-24T18:05:58.650Z,52.30
2018-09-24T18:08:07.426Z,52.60
2018-09-24T18:10:16.183Z,52.30
2018-09-24T18:12:24.900Z,52.50
2018-09-24T18:14:35.165Z,52.70
2018-09-24T18:16:44.031Z,52.90
2018-09-24T18:18:52.851Z,53.10
2018-09-24T18:21:01.685Z,52.90
2018-09-24T18:23:10.504Z,52.60
2018-09-24T18:25:19.168Z,54.30
2018-09-24T18:27:27.965Z,54.10
2018-09-24T18:29:36.776Z,54.10
2018-09-24T18:31:45.697Z,54.50
2018-09-24T18:33:54.465Z,54.70
2018-09-24T18:36:04.841Z,55.00
2018-09-24T18:38:13.641Z,54.80
2018-09-24T18:40:22.398Z,55.00
2018-09-24T18:42:31.312Z,55.40
2018-09-24T18:44:39.951Z,56.20
2018-09-24T18:46:48.579Z,56.30
2018-09-24T18:48:57.736Z,56.90
2018-09-24T18:51:06.411Z,57.70
2018-09-24T18:53:15.152Z,57.80
2018-09-24T18:55:24.016Z,57.80
2018-09-24T18:57:34.502Z,58.50
2018-09-24T18:59:43.353Z,58.60
2018-09-24T19:01:52.006Z,58.90
2018-09-24T19:04:00.782Z,58.80
2018-09-24T19:06:09.672Z,59.00
2018-09-24T19:08:18.411Z,59.00
2018-09-24T19:10:27.264Z,59.20
2018-09-24T19:12:36.077Z,59.00
2018-09-24T19:14:44.733Z,59.30
2018-09-24T19:16:53.712Z,59.70
2018-09-24T19:19:02.349Z,59.80
2018-09-24T19:21:11.051Z,59.50
2018-09-24T19:23:19.844Z,60.00
2018-09-24T19:25:28.748Z,60.50
2018-09-24T19:27:37.536Z,60.70
2018-09-24T19:29:46.407Z,60.50
2018-09-24T19:31:55.369Z,60.70
2018-09-24T19:34:05.417Z,61.70
2018-09-24T19:36:14.112Z,61.90
2018-09-24T19:38:22.774Z,61.80
2018-09-24T19:40:31.597Z,62.10
2018-09-24T19:42:41.360Z,62.70
2018-09-24T19:44:49.940Z,63.00
2018-09-24T19:46:58.671Z,62.90
2018-09-24T19:49:07.712Z,63.20
2018-09-24T19:51:16.491Z,63.70
2018-09-24T19:53:25.107Z,63.90
2018-09-24T19:55:35.835Z,64.10
2018-09-24T19:57:44.490Z,64.30
2018-09-24T19:59:53.239Z,64.50
2018-09-24T20:02:01.941Z,64.80
2018-09-24T20:04:11.020Z,64.70
2018-09-24T20:06:19.668Z,64.60
2018-09-24T20:08:28.652Z,64.10
2018-09-24T20:10:37.403Z,65.00
2018-09-24T20:12:46.428Z,65.20
2018-09-24T20:14:55.108Z,65.00
2018-09-24T20:17:05.529Z,65.00
2018-09-24T20:19:14.304Z,65.20
2018-09-24T20:21:23.180Z,65.40
2018-09-24T20:23:32.159Z,65.70
2018-09-24T20:25:40.921Z,66.00
2018-09-24T20:27:49.531Z,66.10
2018-09-24T20:29:58.467Z,66.50
2018-09-24T20:32:09.060Z,66.70
2018-09-24T20:34:17.742Z,66.60
2018-09-24T20:36:27.636Z,66.70
2018-09-24T20:38:36.539Z,67.00
2018-09-24T20:40:45.327Z,67.30
2018-09-24T20:42:54.010Z,67.30
2018-09-24T20:45:04.729Z,67.30
2018-09-24T20:47:13.687Z,67.50
2018-09-24T20:49:22.384Z,67.30
2018-09-24T20:51:31.357Z,67.10
2018-09-24T20:53:40.202Z,67.10
2018-09-24T20:55:48.976Z,66.90
2018-09-24T20:57:58.008Z,67.10
2018-09-24T21:00:06.652Z,67.30
2018-09-24T21:02:15.532Z,67.10
2018-09-24T21:04:24.722Z,66.90
2018-09-24T21:06:35.220Z,67.30
2018-09-24T21:08:44.073Z,67.60
2018-09-24T21:10:53.020Z,68.50
2018-09-24T21:13:01.680Z,67.80
2018-09-24T21:15:10.599Z,67.80
2018-09-24T21:17:19.495Z,68.90
2018-09-24T21:19:28.306Z,68.70
2018-09-24T21:21:38.288Z,69.20
2018-09-24T21:23:48.444Z,69.70
2018-09-24T21:25:57.787Z,70.30
2018-09-24T21:28:06.680Z,70.40
2018-09-24T21:30:15.513Z,70.60
2018-09-24T21:32:27.751Z,71.10
2018-09-24T21:34:36.636Z,71.00
2018-09-24T21:36:45.349Z,70.60
2018-09-24T21:38:54.127Z,71.40
2018-09-24T21:41:04.161Z,71.40
2018-09-24T21:43:12.987Z,71.40
2018-09-24T21:45:21.753Z,71.70
2018-09-24T21:47:30.556Z,71.20
2018-09-24T21:49:39.455Z,72.00
2018-09-24T21:51:48.114Z,71.80
2018-09-24T21:53:56.919Z,72.20
2018-09-24T21:56:05.715Z,72.40
2018-09-24T21:58:14.573Z,72.20
2018-09-24T22:00:23.479Z,71.90
2018-09-24T22:02:32.408Z,72.00
2018-09-24T22:04:41.128Z,72.10
2018-09-24T22:06:49.948Z,72.40
2018-09-24T22:08:58.691Z,72.30
2018-09-24T22:11:07.360Z,72.80
2018-09-24T22:13:16.098Z,73.50
2018-09-24T22:15:24.842Z,72.60
2018-09-24T22:17:35.112Z,72.80
2018-09-24T22:19:43.792Z,72.40
2018-09-24T22:21:52.526Z,72.60
2018-09-24T22:24:01.432Z,72.80
2018-09-24T22:26:10.143Z,72.40
2018-09-24T22:28:18.927Z,72.90
2018-09-24T22:30:27.869Z,73.10
2018-09-24T22:32:36.858Z,73.20
2018-09-24T22:34:45.796Z,73.70
2018-09-24T22:36:54.397Z,73.50
2018-09-24T22:39:04.893Z,73.50
2018-09-24T22:41:13.627Z,73.10
2018-09-24T22:43:22.244Z,73.80
2018-09-24T22:45:31.154Z,73.60
2018-09-24T22:47:39.954Z,73.80
2018-09-24T22:49:48.952Z,73.50
2018-09-24T22:51:58.476Z,73.70
2018-09-24T22:54:07.327Z,73.20
2018-09-24T22:56:16.145Z,73.50
2018-09-24T22:58:24.780Z,73.70
2018-09-24T23:00:35.064Z,73.50
2018-09-24T23:02:43.842Z,73.40
2018-09-24T23:04:52.507Z,73.50
2018-09-24T23:07:01.255Z,73.50
2018-09-24T23:09:11.304Z,73.50
2018-09-24T23:11:20.021Z,73.40
2018-09-24T23:13:28.670Z,73.40
2018-09-24T23:15:37.359Z,73.40
2018-09-24T23:17:46.072Z,74.50
2018-09-24T23:19:54.827Z,73.60
2018-09-24T23:22:05.040Z,73.90
2018-09-24T23:24:13.895Z,73.60
2018-09-24T23:26:22.521Z,73.20
2018-09-24T23:28:31.343Z,74.00
2018-09-24T23:30:40.189Z,73.60
2018-09-24T23:32:49.247Z,73.60
2018-09-24T23:34:57.984Z,73.60
2018-09-24T23:37:06.909Z,73.80
2018-09-24T23:39:15.760Z,74.20
2018-09-24T23:41:24.540Z,73.60
2018-09-24T23:43:34.967Z,74.10
2018-09-24T23:45:43.722Z,74.40
2018-09-24T23:47:52.637Z,74.20
2018-09-24T23:50:01.480Z,74.00
2018-09-24T23:52:10.272Z,74.20
2018-09-24T23:54:19.096Z,74.40
2018-09-24T23:56:28.056Z,73.80
2018-09-24T23:58:36.965Z,74.10
